sensor_id;sensor_type;location;lat;lon;timestamp;P1;durP1;ratioP1;P2;durP2;ratioP2
15536;SDS011;7870;52.448;13.270;2022-08-02T00:00:49;6.03;;;1.58;;
15536;SDS011;7870;52.448;13.270;2022-08-02T00:03:21;5.32;;;1.60;;
15536;SDS011;7870;52.448;13.270;2022-08-02T00:05:58;6.30;;;1.48;;
15536;SDS011;7870;52.448;13.270;2022-08-02T00:08:25;4.82;;;1.75;;
15536;SDS011;7870;52.448;13.270;2022-08-02T00:10:53;6.63;;;2.33;;
15536;SDS011;7870;52.448;13.270;2022-08-02T00:13:31;6.25;;;1.50;;
15536;SDS011;7870;52.448;13.270;2022-08-02T00:16:12;5.32;;;1.95;;
15536;SDS011;7870;52.448;13.270;2022-08-02T00:18:42;7.20;;;1.50;;
15536;SDS011;7870;52.448;13.270;2022-08-02T00:21:09;4.07;;;1.50;;
15536;SDS011;7870;52.448;13.270;2022-08-02T00:23:47;6.55;;;1.95;;
15536;SDS011;7870;52.448;13.270;2022-08-02T00:26:43;4.78;;;1.55;;
15536;SDS011;7870;52.448;13.270;2022-08-02T00:29:18;4.80;;;1.75;;
15536;SDS011;7870;52.448;13.270;2022-08-02T00:31:48;3.15;;;1.10;;
15536;SDS011;7870;52.448;13.270;2022-08-02T00:34:18;6.57;;;1.73;;
15536;SDS011;7870;52.448;13.270;2022-08-02T00:36:56;3.27;;;1.70;;
15536;SDS011;7870;52.448;13.270;2022-08-02T00:39:25;5.93;;;1.48;;
15536;SDS011;7870;52.448;13.270;2022-08-02T00:42:03;4.80;;;1.75;;
15536;SDS011;7870;52.448;13.270;2022-08-02T00:44:36;4.95;;;1.73;;
15536;SDS011;7870;52.448;13.270;2022-08-02T00:47:03;4.97;;;1.40;;
15536;SDS011;7870;52.448;13.270;2022-08-02T00:49:29;5.85;;;1.98;;
15536;SDS011;7870;52.448;13.270;2022-08-02T00:51:58;6.32;;;1.75;;
15536;SDS011;7870;52.448;13.270;2022-08-02T00:54:24;5.72;;;1.88;;
15536;SDS011;7870;52.448;13.270;2022-08-02T00:56:51;8.15;;;1.92;;
15536;SDS011;7870;52.448;13.270;2022-08-02T00:59:18;3.92;;;1.50;;
15536;SDS011;7870;52.448;13.270;2022-08-02T01:01:44;5.72;;;1.35;;
15536;SDS011;7870;52.448;13.270;2022-08-02T01:04:23;3.72;;;1.40;;
15536;SDS011;7870;52.448;13.270;2022-08-02T01:06:57;6.40;;;1.58;;
15536;SDS011;7870;52.448;13.270;2022-08-02T01:09:24;5.72;;;1.27;;
15536;SDS011;7870;52.448;13.270;2022-08-02T01:11:51;11.68;;;1.75;;
15536;SDS011;7870;52.448;13.270;2022-08-02T01:14:17;5.68;;;1.77;;
15536;SDS011;7870;52.448;13.270;2022-08-02T01:16:49;4.25;;;1.40;;
15536;SDS011;7870;52.448;13.270;2022-08-02T01:22:11;7.00;;;1.80;;
15536;SDS011;7870;52.448;13.270;2022-08-02T01:24:54;6.45;;;1.67;;
15536;SDS011;7870;52.448;13.270;2022-08-02T01:27:28;6.25;;;1.52;;
15536;SDS011;7870;52.448;13.270;2022-08-02T01:29:57;6.45;;;1.67;;
15536;SDS011;7870;52.448;13.270;2022-08-02T01:32:27;6.95;;;2.42;;
15536;SDS011;7870;52.448;13.270;2022-08-02T01:37:28;4.63;;;1.85;;
15536;SDS011;7870;52.448;13.270;2022-08-02T01:39:58;3.92;;;1.95;;
15536;SDS011;7870;52.448;13.270;2022-08-02T01:42:26;4.47;;;1.98;;
15536;SDS011;7870;52.448;13.270;2022-08-02T01:45:09;5.32;;;1.95;;
15536;SDS011;7870;52.448;13.270;2022-08-02T01:47:38;5.75;;;1.73;;
15536;SDS011;7870;52.448;13.270;2022-08-02T01:50:06;4.65;;;1.38;;
15536;SDS011;7870;52.448;13.270;2022-08-02T01:52:35;5.07;;;1.52;;
15536;SDS011;7870;52.448;13.270;2022-08-02T01:55:06;6.68;;;1.45;;
15536;SDS011;7870;52.448;13.270;2022-08-02T01:57:38;6.13;;;2.47;;
15536;SDS011;7870;52.448;13.270;2022-08-02T02:00:07;5.50;;;1.73;;
15536;SDS011;7870;52.448;13.270;2022-08-02T02:02:36;7.55;;;1.95;;
15536;SDS011;7870;52.448;13.270;2022-08-02T02:05:04;5.72;;;1.50;;
15536;SDS011;7870;52.448;13.270;2022-08-02T02:07:32;8.95;;;1.80;;
15536;SDS011;7870;52.448;13.270;2022-08-02T02:10:02;4.30;;;1.42;;
15536;SDS011;7870;52.448;13.270;2022-08-02T02:12:29;6.43;;;1.85;;
15536;SDS011;7870;52.448;13.270;2022-08-02T02:14:56;6.15;;;1.77;;
15536;SDS011;7870;52.448;13.270;2022-08-02T02:17:24;5.40;;;1.95;;
15536;SDS011;7870;52.448;13.270;2022-08-02T02:20:12;6.55;;;1.95;;
15536;SDS011;7870;52.448;13.270;2022-08-02T02:22:42;5.22;;;1.67;;
15536;SDS011;7870;52.448;13.270;2022-08-02T02:25:09;5.30;;;1.60;;
15536;SDS011;7870;52.448;13.270;2022-08-02T02:27:36;5.88;;;1.50;;
15536;SDS011;7870;52.448;13.270;2022-08-02T02:30:09;5.85;;;1.80;;
15536;SDS011;7870;52.448;13.270;2022-08-02T02:32:36;4.55;;;1.70;;
15536;SDS011;7870;52.448;13.270;2022-08-02T02:35:06;6.38;;;1.65;;
15536;SDS011;7870;52.448;13.270;2022-08-02T02:37:34;6.88;;;1.52;;
15536;SDS011;7870;52.448;13.270;2022-08-02T02:40:00;4.70;;;1.90;;
15536;SDS011;7870;52.448;13.270;2022-08-02T02:42:29;4.70;;;1.77;;
15536;SDS011;7870;52.448;13.270;2022-08-02T02:44:57;6.03;;;1.88;;
15536;SDS011;7870;52.448;13.270;2022-08-02T02:47:29;5.78;;;1.73;;
15536;SDS011;7870;52.448;13.270;2022-08-02T02:50:07;6.45;;;1.77;;
15536;SDS011;7870;52.448;13.270;2022-08-02T02:52:34;5.63;;;1.80;;
15536;SDS011;7870;52.448;13.270;2022-08-02T02:55:01;3.25;;;1.98;;
15536;SDS011;7870;52.448;13.270;2022-08-02T02:57:28;7.85;;;2.17;;
15536;SDS011;7870;52.448;13.270;2022-08-02T02:59:55;6.50;;;1.63;;
15536;SDS011;7870;52.448;13.270;2022-08-02T03:02:21;9.05;;;2.00;;
15536;SDS011;7870;52.448;13.270;2022-08-02T03:04:48;5.65;;;2.00;;
15536;SDS011;7870;52.448;13.270;2022-08-02T03:07:23;8.43;;;2.60;;
15536;SDS011;7870;52.448;13.270;2022-08-02T03:09:50;5.63;;;1.88;;
15536;SDS011;7870;52.448;13.270;2022-08-02T03:12:20;5.40;;;1.90;;
15536;SDS011;7870;52.448;13.270;2022-08-02T03:14:53;5.80;;;1.95;;
15536;SDS011;7870;52.448;13.270;2022-08-02T03:17:20;10.05;;;2.38;;
15536;SDS011;7870;52.448;13.270;2022-08-02T03:19:46;5.05;;;2.28;;
15536;SDS011;7870;52.448;13.270;2022-08-02T03:22:13;4.05;;;2.10;;
15536;SDS011;7870;52.448;13.270;2022-08-02T03:24:39;5.72;;;2.25;;
15536;SDS011;7870;52.448;13.270;2022-08-02T03:27:06;5.78;;;2.10;;
15536;SDS011;7870;52.448;13.270;2022-08-02T03:29:34;6.35;;;2.10;;
15536;SDS011;7870;52.448;13.270;2022-08-02T03:32:02;6.05;;;2.30;;
15536;SDS011;7870;52.448;13.270;2022-08-02T03:34:29;10.05;;;2.60;;
15536;SDS011;7870;52.448;13.270;2022-08-02T03:36:56;6.03;;;2.22;;
15536;SDS011;7870;52.448;13.270;2022-08-02T03:39:23;6.32;;;2.58;;
15536;SDS011;7870;52.448;13.270;2022-08-02T03:41:50;12.10;;;2.50;;
15536;SDS011;7870;52.448;13.270;2022-08-02T03:44:17;6.50;;;2.50;;
15536;SDS011;7870;52.448;13.270;2022-08-02T03:46:44;6.20;;;2.20;;
15536;SDS011;7870;52.448;13.270;2022-08-02T03:49:10;6.15;;;2.45;;
15536;SDS011;7870;52.448;13.270;2022-08-02T03:51:39;9.02;;;2.42;;
15536;SDS011;7870;52.448;13.270;2022-08-02T03:54:05;9.70;;;2.58;;
15536;SDS011;7870;52.448;13.270;2022-08-02T03:56:32;6.68;;;2.58;;
15536;SDS011;7870;52.448;13.270;2022-08-02T03:59:06;8.27;;;2.70;;
15536;SDS011;7870;52.448;13.270;2022-08-02T04:01:32;6.68;;;2.60;;
15536;SDS011;7870;52.448;13.270;2022-08-02T04:03:59;12.13;;;2.88;;
15536;SDS011;7870;52.448;13.270;2022-08-02T04:06:25;8.32;;;2.55;;
15536;SDS011;7870;52.448;13.270;2022-08-02T04:08:53;7.15;;;2.33;;
15536;SDS011;7870;52.448;13.270;2022-08-02T04:11:20;7.38;;;2.47;;
15536;SDS011;7870;52.448;13.270;2022-08-02T04:14:09;6.43;;;3.00;;
15536;SDS011;7870;52.448;13.270;2022-08-02T04:19:09;7.32;;;2.38;;
15536;SDS011;7870;52.448;13.270;2022-08-02T04:24:17;6.75;;;2.42;;
15536;SDS011;7870;52.448;13.270;2022-08-02T04:26:45;5.85;;;2.65;;
15536;SDS011;7870;52.448;13.270;2022-08-02T04:29:14;7.40;;;3.20;;
15536;SDS011;7870;52.448;13.270;2022-08-02T04:31:41;6.65;;;2.67;;
15536;SDS011;7870;52.448;13.270;2022-08-02T04:34:08;9.93;;;2.80;;
15536;SDS011;7870;52.448;13.270;2022-08-02T04:36:40;6.97;;;2.45;;
15536;SDS011;7870;52.448;13.270;2022-08-02T04:39:07;8.13;;;2.55;;
15536;SDS011;7870;52.448;13.270;2022-08-02T04:41:40;6.28;;;2.22;;
15536;SDS011;7870;52.448;13.270;2022-08-02T04:44:09;9.38;;;2.88;;
15536;SDS011;7870;52.448;13.270;2022-08-02T04:46:37;6.05;;;2.40;;
15536;SDS011;7870;52.448;13.270;2022-08-02T04:49:04;5.85;;;2.30;;
15536;SDS011;7870;52.448;13.270;2022-08-02T04:51:35;10.63;;;3.00;;
15536;SDS011;7870;52.448;13.270;2022-08-02T04:54:03;5.70;;;2.53;;
15536;SDS011;7870;52.448;13.270;2022-08-02T04:56:35;8.30;;;3.25;;
15536;SDS011;7870;52.448;13.270;2022-08-02T04:59:01;9.32;;;2.72;;
15536;SDS011;7870;52.448;13.270;2022-08-02T05:01:28;10.10;;;2.70;;
15536;SDS011;7870;52.448;13.270;2022-08-02T05:03:54;8.30;;;3.13;;
15536;SDS011;7870;52.448;13.270;2022-08-02T05:06:21;7.43;;;2.55;;
15536;SDS011;7870;52.448;13.270;2022-08-02T05:08:47;6.85;;;2.55;;
15536;SDS011;7870;52.448;13.270;2022-08-02T05:11:19;6.57;;;2.67;;
15536;SDS011;7870;52.448;13.270;2022-08-02T05:13:45;10.20;;;2.85;;
15536;SDS011;7870;52.448;13.270;2022-08-02T05:16:24;8.48;;;2.67;;
15536;SDS011;7870;52.448;13.270;2022-08-02T05:18:57;10.13;;;2.80;;
15536;SDS011;7870;52.448;13.270;2022-08-02T05:21:23;8.55;;;2.35;;
15536;SDS011;7870;52.448;13.270;2022-08-02T05:23:50;10.13;;;2.97;;
15536;SDS011;7870;52.448;13.270;2022-08-02T05:26:16;6.75;;;2.40;;
15536;SDS011;7870;52.448;13.270;2022-08-02T05:28:43;7.60;;;2.22;;
15536;SDS011;7870;52.448;13.270;2022-08-02T05:31:09;7.45;;;2.28;;
15536;SDS011;7870;52.448;13.270;2022-08-02T05:33:38;7.97;;;2.38;;
15536;SDS011;7870;52.448;13.270;2022-08-02T05:36:05;12.30;;;2.97;;
15536;SDS011;7870;52.448;13.270;2022-08-02T05:38:31;10.45;;;3.53;;
15536;SDS011;7870;52.448;13.270;2022-08-02T05:41:02;6.90;;;2.58;;
15536;SDS011;7870;52.448;13.270;2022-08-02T05:43:29;9.27;;;2.45;;
15536;SDS011;7870;52.448;13.270;2022-08-02T05:45:56;7.60;;;2.88;;
15536;SDS011;7870;52.448;13.270;2022-08-02T05:48:22;9.25;;;2.53;;
15536;SDS011;7870;52.448;13.270;2022-08-02T05:51:00;5.95;;;2.38;;
15536;SDS011;7870;52.448;13.270;2022-08-02T05:53:36;8.60;;;2.83;;
15536;SDS011;7870;52.448;13.270;2022-08-02T05:56:08;8.48;;;3.00;;
15536;SDS011;7870;52.448;13.270;2022-08-02T05:58:55;7.20;;;2.53;;
15536;SDS011;7870;52.448;13.270;2022-08-02T06:01:34;8.32;;;2.40;;
15536;SDS011;7870;52.448;13.270;2022-08-02T06:04:07;6.18;;;2.00;;
15536;SDS011;7870;52.448;13.270;2022-08-02T06:09:02;9.20;;;2.05;;
15536;SDS011;7870;52.448;13.270;2022-08-02T06:11:32;9.05;;;2.25;;
15536;SDS011;7870;52.448;13.270;2022-08-02T06:13:59;7.88;;;2.55;;
15536;SDS011;7870;52.448;13.270;2022-08-02T06:16:26;7.05;;;2.78;;
15536;SDS011;7870;52.448;13.270;2022-08-02T06:18:58;6.13;;;2.35;;
15536;SDS011;7870;52.448;13.270;2022-08-02T06:21:25;8.85;;;2.40;;
15536;SDS011;7870;52.448;13.270;2022-08-02T06:24:12;10.73;;;2.08;;
15536;SDS011;7870;52.448;13.270;2022-08-02T06:26:42;6.93;;;1.88;;
15536;SDS011;7870;52.448;13.270;2022-08-02T06:29:09;7.85;;;2.08;;
15536;SDS011;7870;52.448;13.270;2022-08-02T06:31:37;7.00;;;2.10;;
15536;SDS011;7870;52.448;13.270;2022-08-02T06:34:06;6.88;;;2.45;;
15536;SDS011;7870;52.448;13.270;2022-08-02T06:36:46;7.65;;;2.28;;
15536;SDS011;7870;52.448;13.270;2022-08-02T06:41:42;6.25;;;2.00;;
15536;SDS011;7870;52.448;13.270;2022-08-02T06:44:20;7.68;;;1.98;;
15536;SDS011;7870;52.448;13.270;2022-08-02T06:47:07;5.70;;;1.80;;
15536;SDS011;7870;52.448;13.270;2022-08-02T06:49:38;9.27;;;2.40;;
15536;SDS011;7870;52.448;13.270;2022-08-02T06:52:26;7.13;;;1.95;;
15536;SDS011;7870;52.448;13.270;2022-08-02T06:54:57;10.27;;;1.83;;
15536;SDS011;7870;52.448;13.270;2022-08-02T06:57:25;6.40;;;1.90;;
15536;SDS011;7870;52.448;13.270;2022-08-02T06:59:51;7.18;;;2.03;;
15536;SDS011;7870;52.448;13.270;2022-08-02T07:02:19;9.70;;;1.95;;
15536;SDS011;7870;52.448;13.270;2022-08-02T07:04:45;6.55;;;2.08;;
15536;SDS011;7870;52.448;13.270;2022-08-02T07:07:12;7.07;;;2.00;;
15536;SDS011;7870;52.448;13.270;2022-08-02T07:09:38;4.72;;;1.58;;
15536;SDS011;7870;52.448;13.270;2022-08-02T07:12:25;7.22;;;2.15;;
15536;SDS011;7870;52.448;13.270;2022-08-02T07:14:51;6.35;;;1.65;;
15536;SDS011;7870;52.448;13.270;2022-08-02T07:17:18;6.25;;;1.83;;
15536;SDS011;7870;52.448;13.270;2022-08-02T07:19:44;7.03;;;1.80;;
15536;SDS011;7870;52.448;13.270;2022-08-02T07:22:11;7.95;;;1.92;;
15536;SDS011;7870;52.448;13.270;2022-08-02T07:24:38;6.25;;;2.00;;
15536;SDS011;7870;52.448;13.270;2022-08-02T07:27:05;10.65;;;2.15;;
15536;SDS011;7870;52.448;13.270;2022-08-02T07:29:38;7.63;;;1.90;;
15536;SDS011;7870;52.448;13.270;2022-08-02T07:32:12;5.68;;;2.03;;
15536;SDS011;7870;52.448;13.270;2022-08-02T07:34:39;5.03;;;1.70;;
15536;SDS011;7870;52.448;13.270;2022-08-02T07:37:07;7.22;;;1.55;;
15536;SDS011;7870;52.448;13.270;2022-08-02T07:39:54;6.68;;;1.75;;
15536;SDS011;7870;52.448;13.270;2022-08-02T07:42:21;6.50;;;1.90;;
15536;SDS011;7870;52.448;13.270;2022-08-02T07:44:48;5.28;;;1.42;;
15536;SDS011;7870;52.448;13.270;2022-08-02T07:47:15;5.55;;;1.63;;
15536;SDS011;7870;52.448;13.270;2022-08-02T07:49:41;6.80;;;1.77;;
15536;SDS011;7870;52.448;13.270;2022-08-02T07:52:08;8.43;;;1.50;;
15536;SDS011;7870;52.448;13.270;2022-08-02T07:54:35;6.18;;;1.85;;
15536;SDS011;7870;52.448;13.270;2022-08-02T07:57:01;7.97;;;1.77;;
15536;SDS011;7870;52.448;13.270;2022-08-02T07:59:28;5.55;;;1.45;;
15536;SDS011;7870;52.448;13.270;2022-08-02T08:01:55;7.95;;;1.98;;
15536;SDS011;7870;52.448;13.270;2022-08-02T08:04:24;4.35;;;1.35;;
15536;SDS011;7870;52.448;13.270;2022-08-02T08:06:50;4.63;;;1.20;;
15536;SDS011;7870;52.448;13.270;2022-08-02T08:09:18;5.00;;;1.45;;
15536;SDS011;7870;52.448;13.270;2022-08-02T08:11:47;6.95;;;1.55;;
15536;SDS011;7870;52.448;13.270;2022-08-02T08:14:14;6.72;;;2.28;;
15536;SDS011;7870;52.448;13.270;2022-08-02T08:16:42;6.72;;;2.22;;
15536;SDS011;7870;52.448;13.270;2022-08-02T08:19:08;6.50;;;1.65;;
15536;SDS011;7870;52.448;13.270;2022-08-02T08:21:35;5.53;;;1.52;;
15536;SDS011;7870;52.448;13.270;2022-08-02T08:24:01;6.47;;;1.75;;
15536;SDS011;7870;52.448;13.270;2022-08-02T08:26:30;6.35;;;1.80;;
15536;SDS011;7870;52.448;13.270;2022-08-02T08:28:59;5.85;;;1.65;;
15536;SDS011;7870;52.448;13.270;2022-08-02T08:31:27;5.93;;;2.05;;
15536;SDS011;7870;52.448;13.270;2022-08-02T08:33:53;5.82;;;1.50;;
15536;SDS011;7870;52.448;13.270;2022-08-02T08:36:22;3.47;;;1.10;;
15536;SDS011;7870;52.448;13.270;2022-08-02T08:38:49;6.00;;;1.63;;
15536;SDS011;7870;52.448;13.270;2022-08-02T08:41:16;5.88;;;1.65;;
15536;SDS011;7870;52.448;13.270;2022-08-02T08:43:43;3.25;;;1.27;;
15536;SDS011;7870;52.448;13.270;2022-08-02T08:46:10;7.43;;;1.63;;
15536;SDS011;7870;52.448;13.270;2022-08-02T08:48:45;5.80;;;1.83;;
15536;SDS011;7870;52.448;13.270;2022-08-02T08:51:14;4.22;;;1.40;;
15536;SDS011;7870;52.448;13.270;2022-08-02T08:53:48;3.92;;;1.23;;
15536;SDS011;7870;52.448;13.270;2022-08-02T08:56:16;5.18;;;1.42;;
15536;SDS011;7870;52.448;13.270;2022-08-02T08:58:47;4.50;;;1.10;;
15536;SDS011;7870;52.448;13.270;2022-08-02T09:01:14;4.90;;;1.35;;
15536;SDS011;7870;52.448;13.270;2022-08-02T09:03:42;5.07;;;1.65;;
15536;SDS011;7870;52.448;13.270;2022-08-02T09:06:16;4.07;;;1.20;;
15536;SDS011;7870;52.448;13.270;2022-08-02T09:08:43;4.63;;;1.65;;
15536;SDS011;7870;52.448;13.270;2022-08-02T09:11:16;6.63;;;1.50;;
15536;SDS011;7870;52.448;13.270;2022-08-02T09:14:02;3.85;;;1.20;;
15536;SDS011;7870;52.448;13.270;2022-08-02T09:16:30;7.30;;;1.30;;
15536;SDS011;7870;52.448;13.270;2022-08-02T09:18:57;5.35;;;1.30;;
15536;SDS011;7870;52.448;13.270;2022-08-02T09:21:36;6.97;;;1.92;;
15536;SDS011;7870;52.448;13.270;2022-08-02T09:24:12;5.15;;;1.20;;
15536;SDS011;7870;52.448;13.270;2022-08-02T09:26:40;6.28;;;2.03;;
15536;SDS011;7870;52.448;13.270;2022-08-02T09:29:07;7.20;;;1.52;;
15536;SDS011;7870;52.448;13.270;2022-08-02T09:31:34;4.57;;;1.45;;
15536;SDS011;7870;52.448;13.270;2022-08-02T09:34:00;5.70;;;1.63;;
15536;SDS011;7870;52.448;13.270;2022-08-02T09:36:35;5.03;;;1.80;;
15536;SDS011;7870;52.448;13.270;2022-08-02T09:39:06;6.00;;;1.77;;
15536;SDS011;7870;52.448;13.270;2022-08-02T09:41:34;6.95;;;2.15;;
15536;SDS011;7870;52.448;13.270;2022-08-02T09:44:02;4.10;;;1.38;;
15536;SDS011;7870;52.448;13.270;2022-08-02T09:46:36;4.10;;;1.75;;
15536;SDS011;7870;52.448;13.270;2022-08-02T09:49:05;7.93;;;1.60;;
15536;SDS011;7870;52.448;13.270;2022-08-02T09:51:33;4.13;;;1.15;;
15536;SDS011;7870;52.448;13.270;2022-08-02T09:54:01;4.75;;;1.35;;
15536;SDS011;7870;52.448;13.270;2022-08-02T09:56:44;4.13;;;1.42;;
15536;SDS011;7870;52.448;13.270;2022-08-02T09:59:12;6.90;;;1.45;;
15536;SDS011;7870;52.448;13.270;2022-08-02T10:01:39;6.85;;;1.30;;
15536;SDS011;7870;52.448;13.270;2022-08-02T10:04:20;4.82;;;1.63;;
15536;SDS011;7870;52.448;13.270;2022-08-02T10:06:50;5.72;;;1.30;;
15536;SDS011;7870;52.448;13.270;2022-08-02T10:09:17;5.53;;;1.55;;
15536;SDS011;7870;52.448;13.270;2022-08-02T10:11:44;3.25;;;1.15;;
15536;SDS011;7870;52.448;13.270;2022-08-02T10:14:10;6.22;;;1.10;;
15536;SDS011;7870;52.448;13.270;2022-08-02T10:16:38;4.45;;;1.10;;
15536;SDS011;7870;52.448;13.270;2022-08-02T10:19:05;4.00;;;1.20;;
15536;SDS011;7870;52.448;13.270;2022-08-02T10:21:35;6.47;;;1.30;;
15536;SDS011;7870;52.448;13.270;2022-08-02T10:24:14;4.07;;;1.30;;
15536;SDS011;7870;52.448;13.270;2022-08-02T10:29:07;3.60;;;1.23;;
15536;SDS011;7870;52.448;13.270;2022-08-02T10:31:42;4.40;;;1.20;;
15536;SDS011;7870;52.448;13.270;2022-08-02T10:34:11;4.50;;;1.30;;
15536;SDS011;7870;52.448;13.270;2022-08-02T10:36:40;5.88;;;1.55;;
15536;SDS011;7870;52.448;13.270;2022-08-02T10:39:07;3.80;;;0.90;;
15536;SDS011;7870;52.448;13.270;2022-08-02T10:41:46;4.15;;;1.20;;
15536;SDS011;7870;52.448;13.270;2022-08-02T10:44:22;4.68;;;1.15;;
15536;SDS011;7870;52.448;13.270;2022-08-02T10:46:50;3.28;;;1.00;;
15536;SDS011;7870;52.448;13.270;2022-08-02T10:49:18;4.15;;;1.33;;
15536;SDS011;7870;52.448;13.270;2022-08-02T10:52:05;5.28;;;1.27;;
15536;SDS011;7870;52.448;13.270;2022-08-02T10:54:39;3.80;;;1.33;;
15536;SDS011;7870;52.448;13.270;2022-08-02T10:57:13;3.25;;;1.00;;
15536;SDS011;7870;52.448;13.270;2022-08-02T10:59:41;4.60;;;1.30;;
15536;SDS011;7870;52.448;13.270;2022-08-02T11:02:07;5.15;;;1.10;;
15536;SDS011;7870;52.448;13.270;2022-08-02T11:07:14;6.80;;;1.25;;
15536;SDS011;7870;52.448;13.270;2022-08-02T11:09:45;4.88;;;1.52;;
15536;SDS011;7870;52.448;13.270;2022-08-02T11:14:40;5.78;;;0.90;;
15536;SDS011;7870;52.448;13.270;2022-08-02T11:19:34;3.15;;;0.98;;
15536;SDS011;7870;52.448;13.270;2022-08-02T11:22:20;5.00;;;1.27;;
15536;SDS011;7870;52.448;13.270;2022-08-02T11:24:51;4.35;;;1.13;;
15536;SDS011;7870;52.448;13.270;2022-08-02T11:27:18;5.68;;;1.38;;
15536;SDS011;7870;52.448;13.270;2022-08-02T11:29:47;3.90;;;1.10;;
15536;SDS011;7870;52.448;13.270;2022-08-02T11:34:42;5.10;;;1.40;;
15536;SDS011;7870;52.448;13.270;2022-08-02T11:37:10;4.28;;;1.10;;
15536;SDS011;7870;52.448;13.270;2022-08-02T11:39:37;4.10;;;1.10;;
15536;SDS011;7870;52.448;13.270;2022-08-02T11:42:04;4.88;;;1.13;;
15536;SDS011;7870;52.448;13.270;2022-08-02T11:44:38;4.22;;;1.20;;
15536;SDS011;7870;52.448;13.270;2022-08-02T11:47:05;3.85;;;1.55;;
15536;SDS011;7870;52.448;13.270;2022-08-02T11:49:35;4.20;;;1.30;;
15536;SDS011;7870;52.448;13.270;2022-08-02T11:52:03;3.95;;;1.20;;
15536;SDS011;7870;52.448;13.270;2022-08-02T11:54:33;4.13;;;1.23;;
15536;SDS011;7870;52.448;13.270;2022-08-02T11:57:19;3.90;;;1.60;;
15536;SDS011;7870;52.448;13.270;2022-08-02T11:59:53;3.85;;;1.23;;
15536;SDS011;7870;52.448;13.270;2022-08-02T12:02:21;3.95;;;1.38;;
15536;SDS011;7870;52.448;13.270;2022-08-02T12:04:54;3.40;;;1.35;;
15536;SDS011;7870;52.448;13.270;2022-08-02T12:07:28;4.82;;;1.67;;
15536;SDS011;7870;52.448;13.270;2022-08-02T12:10:01;4.20;;;1.10;;
15536;SDS011;7870;52.448;13.270;2022-08-02T12:12:28;5.22;;;1.20;;
15536;SDS011;7870;52.448;13.270;2022-08-02T12:14:54;4.70;;;1.25;;
15536;SDS011;7870;52.448;13.270;2022-08-02T12:17:24;5.85;;;1.55;;
15536;SDS011;7870;52.448;13.270;2022-08-02T12:20:13;4.22;;;1.73;;
15536;SDS011;7870;52.448;13.270;2022-08-02T12:22:39;5.05;;;1.50;;
15536;SDS011;7870;52.448;13.270;2022-08-02T12:25:17;3.67;;;1.05;;
15536;SDS011;7870;52.448;13.270;2022-08-02T12:28:13;5.07;;;1.45;;
15536;SDS011;7870;52.448;13.270;2022-08-02T12:30:56;3.13;;;1.10;;
15536;SDS011;7870;52.448;13.270;2022-08-02T12:33:27;5.40;;;1.60;;
15536;SDS011;7870;52.448;13.270;2022-08-02T12:35:54;6.80;;;1.85;;
15536;SDS011;7870;52.448;13.270;2022-08-02T12:38:21;4.45;;;1.20;;
15536;SDS011;7870;52.448;13.270;2022-08-02T12:40:48;3.03;;;1.13;;
15536;SDS011;7870;52.448;13.270;2022-08-02T12:43:19;4.15;;;1.30;;
15536;SDS011;7870;52.448;13.270;2022-08-02T12:45:50;8.75;;;1.67;;
15536;SDS011;7870;52.448;13.270;2022-08-02T12:48:34;3.03;;;1.02;;
15536;SDS011;7870;52.448;13.270;2022-08-02T12:51:23;4.15;;;1.40;;
15536;SDS011;7870;52.448;13.270;2022-08-02T12:53:50;3.55;;;1.20;;
15536;SDS011;7870;52.448;13.270;2022-08-02T12:56:25;3.67;;;1.08;;
15536;SDS011;7870;52.448;13.270;2022-08-02T12:58:52;2.55;;;0.90;;
15536;SDS011;7870;52.448;13.270;2022-08-02T13:01:19;3.40;;;1.35;;
15536;SDS011;7870;52.448;13.270;2022-08-02T13:03:46;5.40;;;1.10;;
15536;SDS011;7870;52.448;13.270;2022-08-02T13:06:33;4.88;;;1.17;;
15536;SDS011;7870;52.448;13.270;2022-08-02T13:09:15;5.22;;;1.40;;
15536;SDS011;7870;52.448;13.270;2022-08-02T13:11:42;3.67;;;1.13;;
15536;SDS011;7870;52.448;13.270;2022-08-02T13:14:10;5.57;;;1.50;;
15536;SDS011;7870;52.448;13.270;2022-08-02T13:16:36;4.97;;;1.45;;
15536;SDS011;7870;52.448;13.270;2022-08-02T13:19:03;6.05;;;1.60;;
15536;SDS011;7870;52.448;13.270;2022-08-02T13:21:30;3.35;;;1.15;;
15536;SDS011;7870;52.448;13.270;2022-08-02T13:24:16;4.07;;;1.02;;
15536;SDS011;7870;52.448;13.270;2022-08-02T13:27:04;4.32;;;1.10;;
15536;SDS011;7870;52.448;13.270;2022-08-02T13:29:34;3.08;;;1.10;;
15536;SDS011;7870;52.448;13.270;2022-08-02T13:32:01;3.70;;;1.20;;
15536;SDS011;7870;52.448;13.270;2022-08-02T13:34:27;3.92;;;1.33;;
15536;SDS011;7870;52.448;13.270;2022-08-02T13:36:54;5.78;;;1.33;;
15536;SDS011;7870;52.448;13.270;2022-08-02T13:39:20;4.63;;;1.38;;
15536;SDS011;7870;52.448;13.270;2022-08-02T13:41:47;4.63;;;1.25;;
15536;SDS011;7870;52.448;13.270;2022-08-02T13:44:13;4.03;;;1.38;;
15536;SDS011;7870;52.448;13.270;2022-08-02T13:46:40;3.28;;;1.00;;
15536;SDS011;7870;52.448;13.270;2022-08-02T13:49:11;5.40;;;1.20;;
15536;SDS011;7870;52.448;13.270;2022-08-02T13:51:44;4.28;;;1.02;;
15536;SDS011;7870;52.448;13.270;2022-08-02T13:54:11;4.38;;;1.20;;
15536;SDS011;7870;52.448;13.270;2022-08-02T13:56:37;3.97;;;1.30;;
15536;SDS011;7870;52.448;13.270;2022-08-02T13:59:03;5.65;;;1.17;;
15536;SDS011;7870;52.448;13.270;2022-08-02T14:01:50;4.57;;;1.20;;
15536;SDS011;7870;52.448;13.270;2022-08-02T14:04:17;2.97;;;1.10;;
15536;SDS011;7870;52.448;13.270;2022-08-02T14:06:43;3.78;;;1.45;;
15536;SDS011;7870;52.448;13.270;2022-08-02T14:09:10;4.38;;;1.50;;
15536;SDS011;7870;52.448;13.270;2022-08-02T14:11:42;2.92;;;1.30;;
15536;SDS011;7870;52.448;13.270;2022-08-02T14:14:10;5.15;;;1.20;;
15536;SDS011;7870;52.448;13.270;2022-08-02T14:16:42;4.65;;;1.40;;
15536;SDS011;7870;52.448;13.270;2022-08-02T14:19:09;4.93;;;1.10;;
15536;SDS011;7870;52.448;13.270;2022-08-02T14:21:43;4.85;;;1.63;;
15536;SDS011;7870;52.448;13.270;2022-08-02T14:24:27;3.95;;;1.40;;
15536;SDS011;7870;52.448;13.270;2022-08-02T14:27:03;5.00;;;1.30;;
15536;SDS011;7870;52.448;13.270;2022-08-02T14:29:29;4.60;;;1.13;;
15536;SDS011;7870;52.448;13.270;2022-08-02T14:31:59;4.17;;;1.00;;
15536;SDS011;7870;52.448;13.270;2022-08-02T14:34:25;3.60;;;1.20;;
15536;SDS011;7870;52.448;13.270;2022-08-02T14:36:56;4.10;;;1.50;;
15536;SDS011;7870;52.448;13.270;2022-08-02T14:39:25;6.25;;;1.52;;
15536;SDS011;7870;52.448;13.270;2022-08-02T14:42:17;3.78;;;1.42;;
15536;SDS011;7870;52.448;13.270;2022-08-02T14:45:02;4.78;;;1.20;;
15536;SDS011;7870;52.448;13.270;2022-08-02T14:47:39;3.10;;;1.20;;
15536;SDS011;7870;52.448;13.270;2022-08-02T14:50:33;5.32;;;1.52;;
15536;SDS011;7870;52.448;13.270;2022-08-02T14:53:15;5.85;;;1.50;;
15536;SDS011;7870;52.448;13.270;2022-08-02T14:56:27;6.72;;;1.60;;
15536;SDS011;7870;52.448;13.270;2022-08-02T14:58:54;6.00;;;1.60;;
15536;SDS011;7870;52.448;13.270;2022-08-02T15:01:20;3.65;;;1.42;;
15536;SDS011;7870;52.448;13.270;2022-08-02T15:03:51;4.10;;;1.60;;
15536;SDS011;7870;52.448;13.270;2022-08-02T15:06:18;3.65;;;1.40;;
15536;SDS011;7870;52.448;13.270;2022-08-02T15:08:45;7.00;;;1.48;;
15536;SDS011;7870;52.448;13.270;2022-08-02T15:11:12;5.97;;;1.70;;
15536;SDS011;7870;52.448;13.270;2022-08-02T15:13:39;4.00;;;1.42;;
15536;SDS011;7870;52.448;13.270;2022-08-02T15:16:09;3.38;;;1.17;;
15536;SDS011;7870;52.448;13.270;2022-08-02T15:18:35;5.65;;;2.13;;
15536;SDS011;7870;52.448;13.270;2022-08-02T15:21:02;3.03;;;1.30;;
15536;SDS011;7870;52.448;13.270;2022-08-02T15:23:49;4.75;;;1.40;;
15536;SDS011;7870;52.448;13.270;2022-08-02T15:26:16;6.57;;;1.40;;
15536;SDS011;7870;52.448;13.270;2022-08-02T15:28:46;6.18;;;1.60;;
15536;SDS011;7870;52.448;13.270;2022-08-02T15:31:21;4.40;;;1.27;;
15536;SDS011;7870;52.448;13.270;2022-08-02T15:33:59;5.95;;;1.55;;
15536;SDS011;7870;52.448;13.270;2022-08-02T15:36:27;4.82;;;1.45;;